Time;durP1;ratioP1;P1;durP2;ratioP2;P2;SDS_P1;SDS_P2;PMS_P1;PMS_P2;Temp;Humidity;BMP_temperature;BMP_pressure;BME280_temperature;BME280_humidity;BME280_pressure;Samples;Min_cycle;Max_cycle;Signal;HPM_P1;HPM_P2
2021/05/12 00:01:16;;;;;;;16.05;14.30;;;13.20;98.90;;;;;;5103945;28;20055;-39
2021/05/12 00:03:41;;;;;;;15.25;13.70;;;13.20;98.90;;;;;;5099252;28;20027;-36
2021/05/12 00:06:07;;;;;;;16.40;14.65;;;13.20;99.00;;;;;;5101467;28;20154;-39
2021/05/12 00:08:32;;;;;;;18.45;16.13;;;13.10;99.00;;;;;;5101997;28;20048;-39
2021/05/12 00:10:58;;;;;;;16.95;15.18;;;13.10;99.10;;;;;;5098998;28;20510;-39
2021/05/12 00:13:24;;;;;;;15.77;14.18;;;13.10;99.10;;;;;;5105607;28;20498;-37
2021/05/12 00:15:50;;;;;;;15.32;13.73;;;13.10;99.20;;;;;;5095098;28;20064;-38
2021/05/12 00:18:20;;;;;;;15.55;13.55;;;13.00;99.10;;;;;;5105407;28;20016;-40
2021/05/12 00:20:46;;;;;;;17.40;15.35;;;13.00;99.30;;;;;;5094652;28;20027;-39
2021/05/12 00:23:18;;;;;;;15.05;13.63;;;12.90;99.30;;;;;;5106241;28;20027;-37
2021/05/12 00:25:44;;;;;;;17.08;15.27;;;12.90;99.40;;;;;;5103064;28;20454;-40
2021/05/12 00:28:09;;;;;;;17.02;15.32;;;12.80;99.50;;;;;;5106625;28;20020;-39
2021/05/12 00:30:35;;;;;;;17.88;15.93;;;12.80;99.60;;;;;;5093386;28;20460;-41
2021/05/12 00:33:01;;;;;;;17.98;16.08;;;12.80;99.70;;;;;;5106755;28;20032;-39
2021/05/12 00:35:27;;;;;;;19.10;15.02;;;12.80;99.70;;;;;;5093447;28;20024;-40
2021/05/12 00:37:52;;;;;;;18.10;16.20;;;12.70;99.70;;;;;;5106387;28;20125;-40
2021/05/12 00:40:18;;;;;;;19.40;16.00;;;12.80;99.80;;;;;;5096279;28;20028;-40
2021/05/12 00:42:44;;;;;;;20.88;17.00;;;12.80;99.70;;;;;;5104023;28;20027;-38
2021/05/12 00:45:14;;;;;;;16.50;14.13;;;12.80;99.80;;;;;;5098626;28;20031;-40
2021/05/12 00:47:40;;;;;;;16.95;14.40;;;12.80;99.70;;;;;;5101910;28;20331;-39
2021/05/12 00:50:07;;;;;;;17.10;13.55;;;12.80;99.70;;;;;;5100113;28;20107;-37
2021/05/12 00:52:35;;;;;;;15.48;13.30;;;12.80;99.70;;;;;;5087702;28;20107;-39
2021/05/12 00:55:01;;;;;;;14.27;12.65;;;12.80;99.60;;;;;;5102014;28;20016;-40
2021/05/12 00:57:26;;;;;;;17.60;13.25;;;12.70;99.60;;;;;;5097225;28;20026;-39
2021/05/12 00:59:53;;;;;;;15.13;13.07;;;12.70;99.60;;;;;;5104023;28;20034;-38
2021/05/12 01:02:19;;;;;;;16.05;13.77;;;12.60;99.60;;;;;;5094820;28;20282;-39
2021/05/12 01:04:45;;;;;;;16.88;13.57;;;12.60;99.60;;;;;;5103378;28;20107;-40
2021/05/12 01:07:11;;;;;;;16.48;13.27;;;12.50;99.70;;;;;;5094674;28;20547;-39
2021/05/12 01:09:37;;;;;;;14.25;12.75;;;12.50;99.70;;;;;;5105817;28;20008;-40
2021/05/12 01:12:03;;;;;;;15.15;11.30;;;12.50;99.70;;;;;;5091660;28;20032;-39
2021/05/12 01:14:30;;;;;;;15.40;12.43;;;12.50;99.80;;;;;;5105875;28;20032;-40
2021/05/12 01:16:56;;;;;;;13.00;11.30;;;12.40;99.70;;;;;;5092074;28;20025;-39
2021/05/12 01:19:21;;;;;;;15.00;11.20;;;12.50;99.70;;;;;;5105797;28;20381;-40
2021/05/12 01:21:47;;;;;;;12.30;10.93;;;12.50;99.70;;;;;;5093456;28;20222;-40
2021/05/12 01:24:13;;;;;;;12.07;10.60;;;12.40;99.60;;;;;;5104265;28;20357;-39
2021/05/12 01:26:39;;;;;;;12.45;9.40;;;12.50;99.60;;;;;;5096562;28;20302;-43
2021/05/12 01:29:05;;;;;;;12.13;8.82;;;12.50;99.50;;;;;;5101837;28;20023;-37
2021/05/12 01:31:33;;;;;;;12.80;9.80;;;12.40;99.40;;;;;;5098733;28;20119;-39
2021/05/12 01:34:01;;;;;;;11.38;9.35;;;12.40;99.40;;;;;;5099524;28;20238;-39
2021/05/12 01:36:27;;;;;;;12.02;9.55;;;12.40;99.40;;;;;;5101052;28;20019;-39
2021/05/12 01:38:53;;;;;;;10.77;9.23;;;12.30;99.30;;;;;;5096677;28;20054;-39
2021/05/12 01:41:20;;;;;;;11.40;9.93;;;12.30;99.30;;;;;;5101161;28;20092;-40
2021/05/12 01:43:46;;;;;;;12.77;9.50;;;12.20;99.30;;;;;;5095263;28;20028;-39
2021/05/12 01:46:12;;;;;;;10.30;9.20;;;12.20;99.30;;;;;;5086169;28;20044;-39
2021/05/12 01:48:38;;;;;;;13.95;9.10;;;12.20;99.40;;;;;;5096028;28;20028;-39
2021/05/12 01:51:07;;;;;;;11.93;9.32;;;12.20;99.40;;;;;;5085585;28;20036;-39
2021/05/12 01:53:32;;;;;;;13.57;9.35;;;12.20;99.40;;;;;;5095993;28;20619;-40
2021/05/12 01:55:58;;;;;;;11.25;8.95;;;12.10;99.40;;;;;;5084959;28;20103;-39
2021/05/12 01:58:24;;;;;;;10.23;8.75;;;12.10;99.40;;;;;;5097574;28;20466;-40
2021/05/12 02:00:52;;;;;;;9.60;8.52;;;12.10;99.40;;;;;;5084326;28;20051;-41
2021/05/12 02:03:18;;;;;;;15.85;8.10;;;12.10;99.30;;;;;;5097558;28;20360;-41
2021/05/12 02:08:47;;;;;;;11.00;8.23;;;12.00;99.30;;;;;;5096790;28;20108;-40
2021/05/12 02:11:16;;;;;;;8.05;7.20;;;12.00;99.30;;;;;;5085520;28;20432;-38
2021/05/12 02:13:44;;;;;;;13.18;8.38;;;12.00;99.30;;;;;;5099762;28;20032;-39
2021/05/12 02:16:10;;;;;;;11.32;8.50;;;11.90;99.30;;;;;;5089733;28;20027;-40
2021/05/12 02:18:35;;;;;;;11.60;8.48;;;11.90;99.30;;;;;;5098899;28;20031;-40
2021/05/12 02:21:01;;;;;;;10.73;8.40;;;11.90;99.30;;;;;;5089704;28;20028;-40
2021/05/12 02:23:29;;;;;;;9.35;8.15;;;11.90;99.30;;;;;;5097101;28;20396;-39
2021/05/12 02:25:56;;;;;;;11.75;8.43;;;12.00;99.30;;;;;;5092791;28;20024;-39
2021/05/12 02:28:22;;;;;;;11.02;8.63;;;12.00;99.30;;;;;;5093753;28;20018;-38
2021/05/12 02:30:47;;;;;;;9.50;7.75;;;12.10;99.30;;;;;;5095707;28;20079;-39
2021/05/12 02:33:13;;;;;;;12.20;8.25;;;12.10;99.20;;;;;;5091373;28;20017;-39
2021/05/12 02:35:39;;;;;;;10.52;8.00;;;12.10;99.10;;;;;;5097591;28;20739;-38
2021/05/12 02:38:06;;;;;;;11.60;8.82;;;12.20;99.10;;;;;;5089929;28;20016;-39
2021/05/12 02:40:31;;;;;;;12.45;8.68;;;12.20;99.30;;;;;;5099801;28;20036;-39
2021/05/12 02:42:58;;;;;;;13.95;9.90;;;12.20;99.00;;;;;;5105605;28;20058;-38
2021/05/12 02:45:24;;;;;;;13.32;9.65;;;12.20;99.00;;;;;;5097060;28;20098;-38
2021/05/12 02:47:59;;;;;;;12.88;10.43;;;12.20;98.90;;;;;;5108315;28;20096;-39
2021/05/12 02:50:31;;;;;;;12.45;10.70;;;12.20;98.90;;;;;;5096366;28;20012;-39
2021/05/12 02:52:58;;;;;;;13.18;10.25;;;12.20;98.90;;;;;;5108552;28;20058;-37
2021/05/12 02:55:25;;;;;;;12.23;10.55;;;12.20;98.90;;;;;;5094961;28;21442;-40
2021/05/12 02:57:50;;;;;;;13.75;10.82;;;12.20;99.00;;;;;;5107964;28;20028;-38
2021/05/12 03:00:22;;;;;;;13.98;11.40;;;12.20;99.00;;;;;;5095892;28;20044;-40
2021/05/12 03:02:48;;;;;;;14.77;11.68;;;12.30;99.00;;;;;;5107571;28;20035;-40
2021/05/12 03:05:14;;;;;;;14.68;11.57;;;12.30;99.00;;;;;;5097403;28;20085;-36
2021/05/12 03:07:40;;;;;;;13.18;10.75;;;12.30;98.90;;;;;;5106598;28;20430;-39
2021/05/12 03:10:09;;;;;;;14.40;11.65;;;12.30;99.00;;;;;;5098834;28;20588;-42
2021/05/12 03:12:35;;;;;;;15.48;12.43;;;12.30;98.90;;;;;;5104592;28;20177;-38
2021/05/12 03:15:00;;;;;;;15.27;12.50;;;12.20;98.90;;;;;;5101631;28;20051;-39
2021/05/12 03:17:26;;;;;;;18.00;13.60;;;12.20;99.00;;;;;;5101940;28;20415;-38
2021/05/12 03:19:52;;;;;;;15.38;12.23;;;12.10;99.00;;;;;;5103777;28;20085;-40
2021/05/12 03:22:17;;;;;;;15.18;12.13;;;12.00;99.10;;;;;;5099298;28;20063;-39
2021/05/12 03:24:43;;;;;;;15.75;12.73;;;12.00;99.10;;;;;;5105457;28;20024;-39
2021/05/12 03:27:08;;;;;;;16.48;12.65;;;11.80;99.20;;;;;;5097120;28;20525;-40
2021/05/12 03:29:34;;;;;;;17.92;12.55;;;11.80;99.30;;;;;;5106152;28;20471;-37
2021/05/12 03:31:59;;;;;;;14.82;12.40;;;11.80;99.40;;;;;;5096221;28;20027;-39
2021/05/12 03:34:28;;;;;;;15.63;12.90;;;11.70;99.50;;;;;;5108486;28;20126;-39
2021/05/12 03:36:53;;;;;;;15.35;12.55;;;11.70;99.50;;;;;;5099587;28;20020;-39
2021/05/12 03:39:19;;;;;;;18.98;13.88;;;11.70;99.60;;;;;;5087405;28;20383;-39
2021/05/12 03:41:45;;;;;;;15.20;12.75;;;11.70;99.60;;;;;;5092713;28;20043;-39
2021/05/12 03:44:11;;;;;;;15.35;12.98;;;11.70;99.60;;;;;;5087811;28;20102;-39
2021/05/12 03:46:39;;;;;;;18.05;13.93;;;11.60;99.60;;;;;;5097721;28;20122;-39
2021/05/12 03:49:05;;;;;;;18.40;13.27;;;11.60;99.60;;;;;;5089028;28;20020;-40
2021/05/12 03:51:30;;;;;;;20.33;13.40;;;11.60;99.70;;;;;;5095797;28;20038;-40
2021/05/12 03:53:56;;;;;;;18.15;13.73;;;11.60;99.90;;;;;;5090943;28;20046;-38
2021/05/12 03:56:22;;;;;;;17.55;12.68;;;11.50;99.70;;;;;;5093625;28;20034;-39
2021/05/12 03:58:47;;;;;;;15.10;12.27;;;11.40;99.70;;;;;;5092887;28;20119;-40
2021/05/12 04:01:13;;;;;;;17.13;13.70;;;11.30;99.70;;;;;;5090896;28;20109;-39
2021/05/12 04:03:38;;;;;;;18.45;14.13;;;11.30;99.80;;;;;;5096123;28;20134;-39
2021/05/12 04:06:04;;;;;;;16.33;13.00;;;11.30;99.90;;;;;;5087801;28;20150;-39
2021/05/12 04:08:30;;;;;;;19.33;13.20;;;11.20;99.80;;;;;;5098425;28;20051;-39
2021/05/12 04:10:55;;;;;;;18.67;14.18;;;11.20;99.90;;;;;;5088317;28;20027;-39
2021/05/12 04:13:21;;;;;;;18.35;14.43;;;11.20;99.90;;;;;;5098514;28;20024;-40
2021/05/12 04:15:48;;;;;;;17.88;14.30;;;11.30;99.90;;;;;;5086500;28;20511;-39
2021/05/12 04:18:14;;;;;;;18.40;14.75;;;11.20;99.90;;;;;;5100311;28;20012;-39
2021/05/12 04:20:39;;;;;;;17.73;13.25;;;11.30;99.90;;;;;;5086633;28;20047;-37
2021/05/12 04:23:05;;;;;;;17.05;14.27;;;11.30;99.90;;;;;;5099244;28;20359;-40
2021/05/12 04:25:31;;;;;;;21.85;14.73;;;11.40;99.90;;;;;;5086846;28;20028;-34
2021/05/12 04:27:56;;;;;;;20.33;13.68;;;11.50;99.90;;;;;;5097396;28;20023;-39
2021/05/12 04:30:24;;;;;;;19.77;14.57;;;11.50;99.90;;;;;;5088803;28;20421;-37
2021/05/12 04:32:50;;;;;;;18.80;15.35;;;11.60;99.80;;;;;;5094447;28;20027;-40
2021/05/12 04:35:23;;;;;;;18.05;14.02;;;11.60;99.80;;;;;;5089923;28;20024;-35
2021/05/12 04:37:49;;;;;;;19.40;14.57;;;11.60;99.80;;;;;;5092972;28;20748;-36
2021/05/12 04:40:15;;;;;;;18.88;14.07;;;11.60;99.80;;;;;;5092564;28;20016;-40
2021/05/12 04:42:41;;;;;;;17.75;14.10;;;11.60;99.80;;;;;;5096525;28;20031;-40
2021/05/12 04:45:08;;;;;;;19.23;14.38;;;11.50;99.80;;;;;;5098880;28;20024;-38
2021/05/12 04:47:34;;;;;;;17.23;13.20;;;11.50;99.90;;;;;;5103981;28;20089;-40
2021/05/12 04:50:05;;;;;;;18.40;14.55;;;11.50;99.90;;;;;;5095933;28;20024;-39
2021/05/12 04:52:30;;;;;;;19.25;14.73;;;11.50;99.90;;;;;;5105404;28;20035;-41
2021/05/12 04:54:56;;;;;;;16.80;14.23;;;11.40;99.90;;;;;;5095012;28;20390;-38
2021/05/12 04:57:21;;;;;;;21.23;14.80;;;11.40;99.90;;;;;;5105764;28;20470;-39
2021/05/12 04:59:47;;;;;;;19.98;15.20;;;11.50;99.90;;;;;;5094409;28;20046;-39
2021/05/12 05:02:21;;;;;;;17.70;13.75;;;11.50;99.90;;;;;;5106074;28;20047;-39
2021/05/12 05:04:47;;;;;;;18.02;13.80;;;11.60;99.90;;;;;;5084073;28;20040;-40
2021/05/12 05:07:12;;;;;;;17.90;13.35;;;11.70;99.90;;;;;;5085439;28;20442;-39
2021/05/12 05:09:38;;;;;;;21.02;14.20;;;11.70;99.90;;;;;;5097913;28;20031;-38
2021/05/12 05:12:03;;;;;;;18.52;14.30;;;11.80;99.90;;;;;;5085788;28;20721;-39
2021/05/12 05:14:29;;;;;;;18.40;14.15;;;11.80;99.80;;;;;;5096695;28;20035;-40
2021/05/12 05:16:55;;;;;;;17.08;13.70;;;11.80;99.80;;;;;;5087431;28;20056;-40
2021/05/12 05:19:21;;;;;;;16.00;13.20;;;11.80;99.80;;;;;;5094535;28;20542;-38
2021/05/12 05:21:48;;;;;;;17.35;13.68;;;11.80;99.80;;;;;;5090048;28;20459;-38
2021/05/12 05:24:16;;;;;;;17.83;13.25;;;11.80;99.80;;;;;;5090612;28;20020;-39
2021/05/12 05:26:42;;;;;;;16.52;12.98;;;11.80;99.80;;;;;;5092547;28;20345;-40
2021/05/12 05:29:08;;;;;;;15.00;12.90;;;11.80;99.80;;;;;;5089758;28;20030;-40
2021/05/12 05:31:33;;;;;;;18.42;12.15;;;11.70;99.80;;;;;;5094391;28;20024;-40
2021/05/12 05:33:59;;;;;;;18.15;12.90;;;11.70;99.80;;;;;;5087250;28;20128;-38
2021/05/12 05:36:24;;;;;;;17.15;12.55;;;11.70;99.90;;;;;;5097014;28;20020;-38
2021/05/12 05:38:53;;;;;;;19.35;14.07;;;11.60;99.90;;;;;;5086159;28;20027;-39
2021/05/12 05:41:19;;;;;;;21.65;15.35;;;11.60;99.90;;;;;;5087542;28;20492;-41
2021/05/12 05:43:44;;;;;;;23.60;16.33;;;11.60;99.90;;;;;;5105830;28;20019;-40
2021/05/12 05:46:10;;;;;;;20.90;15.10;;;11.70;99.90;;;;;;5098107;28;20100;-38
2021/05/12 05:48:35;;;;;;;24.05;15.75;;;11.70;99.90;;;;;;5088861;28;20242;-39
2021/05/12 05:51:01;;;;;;;21.70;14.38;;;11.80;99.90;;;;;;5102227;28;20045;-39
2021/05/12 05:53:27;;;;;;;23.52;15.90;;;11.80;99.90;;;;;;5089309;28;20031;-38
2021/05/12 05:55:52;;;;;;;24.80;17.30;;;11.80;99.90;;;;;;5100194;28;20111;-39
2021/05/12 05:58:18;;;;;;;21.90;17.25;;;11.90;99.90;;;;;;5091452;28;20028;-39
2021/05/12 06:00:45;;;;;;;22.08;16.35;;;11.90;99.90;;;;;;5096363;28;20055;-40
2021/05/12 06:03:11;;;;;;;17.58;13.90;;;12.00;99.90;;;;;;5094272;28;20138;-40
2021/05/12 06:05:37;;;;;;;24.13;15.43;;;12.00;99.90;;;;;;5094655;28;20110;-39
2021/05/12 06:08:03;;;;;;;21.20;15.30;;;12.10;99.90;;;;;;5096391;28;20067;-39
2021/05/12 06:10:28;;;;;;;18.67;14.93;;;12.10;99.90;;;;;;5092423;28;20012;-39
2021/05/12 06:12:54;;;;;;;18.92;14.65;;;12.10;99.90;;;;;;5098346;28;20024;-38
2021/05/12 06:15:22;;;;;;;13.70;11.40;;;12.20;99.90;;;;;;5090749;28;20498;-39
2021/05/12 06:17:51;;;;;;;18.35;13.13;;;12.30;99.80;;;;;;5100507;28;20032;-40
2021/05/12 06:20:20;;;;;;;21.55;15.45;;;12.30;99.80;;;;;;5090831;28;20031;-40
2021/05/12 06:22:45;;;;;;;22.52;16.13;;;12.30;99.90;;;;;;5100158;28;20027;-40
2021/05/12 06:25:12;;;;;;;22.70;16.23;;;12.40;99.70;;;;;;5089357;28;20029;-39
2021/05/12 06:27:39;;;;;;;21.83;15.60;;;12.40;99.50;;;;;;5104084;28;20020;-40
2021/05/12 06:30:05;;;;;;;20.83;14.13;;;12.50;99.40;;;;;;5088824;28;20042;-41
2021/05/12 06:32:31;;;;;;;16.23;12.88;;;12.50;99.40;;;;;;5101844;28;20031;-40
2021/05/12 06:34:57;;;;;;;17.63;12.60;;;12.60;99.30;;;;;;5088453;28;20028;-40
2021/05/12 06:37:22;;;;;;;21.27;12.30;;;12.60;99.00;;;;;;5100301;28;20619;-39
2021/05/12 06:39:50;;;;;;;18.38;11.70;;;12.70;98.50;;;;;;5089519;28;20054;-40
2021/05/12 06:42:19;;;;;;;15.40;10.07;;;12.70;98.30;;;;;;5100141;28;20036;-37
2021/05/12 06:44:45;;;;;;;19.13;11.38;;;12.70;98.40;;;;;;5088612;28;20035;-40
2021/05/12 06:47:11;;;;;;;14.25;10.73;;;12.80;97.40;;;;;;5096446;28;20098;-40
2021/05/12 06:49:36;;;;;;;18.88;10.43;;;12.80;97.70;;;;;;5093723;28;20538;-38
2021/05/12 06:52:02;;;;;;;20.48;10.60;;;12.90;97.70;;;;;;5092780;28;20059;-38
2021/05/12 06:54:28;;;;;;;18.05;9.50;;;12.90;97.50;;;;;;5096364;28;20016;-39
2021/05/12 06:56:53;;;;;;;19.20;8.48;;;12.90;97.40;;;;;;5090013;28;20349;-39
2021/05/12 06:59:19;;;;;;;12.25;7.03;;;12.90;97.30;;;;;;5099134;28;20047;-39
2021/05/12 07:01:44;;;;;;;15.73;8.70;;;13.00;97.40;;;;;;5088673;28;20044;-38
2021/05/12 07:04:10;;;;;;;10.65;7.22;;;13.00;97.10;;;;;;5100416;28;20115;-40
2021/05/12 07:06:36;;;;;;;9.95;6.38;;;13.00;97.30;;;;;;5088452;28;20031;-39
2021/05/12 07:09:02;;;;;;;16.33;9.05;;;13.00;97.30;;;;;;5100704;28;20097;-40
2021/05/12 07:11:29;;;;;;;14.15;8.65;;;13.10;96.50;;;;;;5088846;28;20150;-40
2021/05/12 07:13:54;;;;;;;12.00;7.50;;;13.10;96.70;;;;;;5100264;28;20030;-40
2021/05/12 07:16:20;;;;;;;13.57;7.43;;;13.20;96.70;;;;;;5088521;28;20283;-40
2021/05/12 07:18:46;;;;;;;11.88;7.45;;;13.20;96.30;;;;;;5099316;28;20056;-41
2021/05/12 07:21:12;;;;;;;9.05;5.65;;;13.30;96.40;;;;;;5089006;28;20036;-44
2021/05/12 07:23:39;;;;;;;9.38;5.95;;;13.40;96.40;;;;;;5096810;28;20095;-40
2021/05/12 07:26:05;;;;;;;8.88;5.28;;;13.40;96.20;;;;;;5091396;28;20046;-38
2021/05/12 07:28:30;;;;;;;8.70;5.47;;;13.40;96.10;;;;;;5094616;28;20019;-38
2021/05/12 07:30:56;;;;;;;9.25;5.50;;;13.50;96.10;;;;;;5093603;28;20027;-39
2021/05/12 07:33:22;;;;;;;9.02;4.85;;;13.50;95.80;;;;;;5092068;28;20066;-40
2021/05/12 07:35:47;;;;;;;10.77;5.40;;;13.60;96.00;;;;;;5096082;28;20068;-42
2021/05/12 07:38:13;;;;;;;13.77;5.65;;;13.50;95.80;;;;;;5088629;28;20047;-39
2021/05/12 07:40:38;;;;;;;9.73;4.93;;;13.60;95.30;;;;;;5108126;28;20028;-38
2021/05/12 07:43:09;;;;;;;7.50;4.50;;;13.60;95.70;;;;;;5093349;28;20019;-38
2021/05/12 07:45:37;;;;;;;11.63;4.72;;;13.60;95.80;;;;;;5098488;28;20031;-38
2021/05/12 07:48:04;;;;;;;7.35;4.70;;;13.70;95.90;;;;;;5088044;28;20099;-39
2021/05/12 07:50:30;;;;;;;9.80;4.35;;;13.80;95.70;;;;;;5098766;28;20490;-39
2021/05/12 07:53:01;;;;;;;8.90;3.97;;;13.90;95.70;;;;;;5087086;28;20023;-39
2021/05/12 07:55:28;;;;;;;6.75;3.88;;;13.90;95.50;;;;;;5100205;28;20056;-39
2021/05/12 07:57:54;;;;;;;7.50;3.75;;;14.00;95.00;;;;;;5087141;28;20044;-37
2021/05/12 08:00:20;;;;;;;12.35;4.82;;;14.00;95.10;;;;;;5100281;28;20135;-39
2021/05/12 08:02:45;;;;;;;11.18;4.22;;;14.10;94.90;;;;;;5086704;28;20318;-40
2021/05/12 08:05:12;;;;;;;9.95;4.40;;;14.10;95.00;;;;;;5097771;28;20027;-40
2021/05/12 08:07:38;;;;;;;9.65;4.18;;;14.10;95.00;;;;;;5089152;28;20032;-40
2021/05/12 08:10:04;;;;;;;8.73;3.67;;;14.10;95.10;;;;;;5093947;28;20034;-39
2021/05/12 08:12:30;;;;;;;6.03;2.78;;;14.20;95.10;;;;;;5091286;28;20028;-40
2021/05/12 08:14:55;;;;;;;5.40;2.45;;;14.20;94.10;;;;;;5092245;28;20031;-40
2021/05/12 08:17:21;;;;;;;7.10;2.97;;;14.30;94.10;;;;;;5094165;28;20039;-37
2021/05/12 08:19:47;;;;;;;5.93;2.83;;;14.30;94.30;;;;;;5088519;28;20067;-39
2021/05/12 08:22:15;;;;;;;9.20;2.97;;;14.40;94.20;;;;;;5097286;28;20188;-39
2021/05/12 08:24:41;;;;;;;8.07;3.03;;;14.40;94.30;;;;;;5087450;28;20032;-40
2021/05/12 08:27:06;;;;;;;6.38;2.40;;;14.40;94.30;;;;;;5097503;28;20031;-39
2021/05/12 08:29:33;;;;;;;6.97;2.83;;;14.40;93.70;;;;;;5088075;28;20127;-39
2021/05/12 08:32:00;;;;;;;8.85;2.60;;;14.40;93.80;;;;;;5098131;28;20024;-39
2021/05/12 08:34:31;;;;;;;8.25;2.85;;;14.40;93.90;;;;;;5086325;28;20016;-40
2021/05/12 08:36:56;;;;;;;9.05;2.55;;;14.40;93.20;;;;;;5098804;28;20122;-38
2021/05/12 08:39:22;;;;;;;6.43;2.63;;;14.50;93.00;;;;;;5086671;28;20158;-40
2021/05/12 08:41:50;;;;;;;6.15;2.75;;;14.50;93.30;;;;;;5094154;28;20016;-41
2021/05/12 08:44:16;;;;;;;4.47;2.53;;;14.60;93.30;;;;;;5087142;28;20016;-40
2021/05/12 08:46:47;;;;;;;4.80;2.20;;;14.60;93.00;;;;;;5097786;28;20031;-40
2021/05/12 08:49:18;;;;;;;6.57;2.53;;;14.60;93.10;;;;;;5086537;28;20337;-39
2021/05/12 08:51:44;;;;;;;5.95;3.30;;;14.60;93.20;;;;;;5095812;28;20023;-39
2021/05/12 08:54:11;;;;;;;8.77;2.78;;;14.70;93.30;;;;;;5088203;28;20135;-38
2021/05/12 08:56:37;;;;;;;7.55;2.67;;;14.80;92.90;;;;;;5093912;28;20689;-38
2021/05/12 08:59:03;;;;;;;4.95;2.78;;;14.90;93.10;;;;;;5090725;28;20054;-37
2021/05/12 09:01:29;;;;;;;9.85;3.80;;;14.90;93.00;;;;;;5091409;28;20047;-39
2021/05/12 09:03:55;;;;;;;9.65;4.15;;;15.00;92.70;;;;;;5092636;28;20359;-38
2021/05/12 09:06:24;;;;;;;7.18;3.53;;;15.00;92.80;;;;;;5088601;28;20368;-41
2021/05/12 09:08:50;;;;;;;8.55;3.30;;;15.10;92.60;;;;;;5095044;28;20035;-40
2021/05/12 09:11:16;;;;;;;8.55;3.75;;;15.20;92.70;;;;;;5087115;28;20016;-38
2021/05/12 09:13:44;;;;;;;7.78;3.85;;;15.20;92.30;;;;;;5096765;28;20023;-39
2021/05/12 09:16:23;;;;;;;5.97;2.92;;;15.30;92.30;;;;;;5086858;28;20034;-40
2021/05/12 09:18:58;;;;;;;4.95;2.88;;;15.40;92.20;;;;;;5096778;28;20024;-40
2021/05/12 09:21:47;;;;;;;5.18;2.72;;;15.40;92.00;;;;;;5087277;28;20024;-40
2021/05/12 09:24:21;;;;;;;5.70;2.60;;;15.50;91.80;;;;;;5095286;28;20111;-38
2021/05/12 09:26:48;;;;;;;8.15;2.70;;;15.50;91.50;;;;;;5102210;28;20035;-40
2021/05/12 09:29:28;;;;;;;7.03;3.08;;;15.50;91.50;;;;;;5083535;28;20024;-39
2021/05/12 09:32:07;;;;;;;5.40;2.60;;;15.50;91.60;;;;;;5086801;28;20084;-39
2021/05/12 09:35:00;;;;;;;9.70;3.47;;;15.60;91.60;;;;;;5095288;28;20482;-40
2021/05/12 09:37:28;;;;;;;4.75;2.10;;;15.80;91.40;;;;;;5100915;28;20032;-39
2021/05/12 09:39:54;;;;;;;6.50;2.42;;;15.80;91.20;;;;;;5094644;28;20020;-39
2021/05/12 09:42:21;;;;;;;8.60;2.92;;;15.90;91.00;;;;;;5092836;28;20024;-39
2021/05/12 09:44:50;;;;;;;6.90;2.45;;;16.00;90.50;;;;;;5094469;28;20094;-39
2021/05/12 09:47:31;;;;;;;7.95;2.13;;;16.00;90.60;;;;;;5104713;28;20039;-40
2021/05/12 09:49:57;;;;;;;8.90;2.28;;;16.10;90.50;;;;;;5094142;28;20024;-40
2021/05/12 09:52:29;;;;;;;9.43;2.42;;;16.10;90.20;;;;;;5104378;28;20031;-39
2021/05/12 09:55:03;;;;;;;;;;;16.10;90.20;;;;;;5095423;28;20038;-39
2021/05/12 09:57:28;;;;;;;8.23;2.35;;;16.20;90.20;;;;;;5104476;28;19912;-40
2021/05/12 09:59:54;;;;;;;4.88;1.67;;;16.20;89.20;;;;;;5094655;28;20301;-39
2021/05/12 10:02:20;;;;;;;5.05;1.45;;;16.30;89.20;;;;;;5106358;28;20124;-41
2021/05/12 10:04:50;;;;;;;5.75;2.10;;;16.40;88.80;;;;;;5092131;28;20024;-40
2021/05/12 10:07:24;;;;;;;6.40;1.63;;;16.50;87.80;;;;;;5106930;28;20041;-39
2021/05/12 10:09:51;;;;;;;3.50;1.77;;;16.60;87.30;;;;;;5093211;28;20092;-38
2021/05/12 10:12:18;;;;;;;3.47;1.15;;;16.60;87.30;;;;;;5105703;28;20668;-41
2021/05/12 10:14:49;;;;;;;3.47;1.30;;;16.70;84.90;;;;;;5092801;28;20089;-39
2021/05/12 10:17:16;;;;;;;2.95;1.10;;;16.70;84.30;;;;;;5086491;28;20039;-41
2021/05/12 10:19:44;;;;;;;5.68;1.42;;;16.80;83.70;;;;;;5088540;28;20144;-41
2021/05/12 10:22:10;;;;;;;5.78;1.27;;;16.90;82.60;;;;;;5104305;28;20028;-40
2021/05/12 10:24:38;;;;;;;4.22;1.23;;;16.90;82.30;;;;;;5096740;28;20027;-40
2021/05/12 10:27:18;;;;;;;4.57;1.30;;;16.90;82.50;;;;;;5100666;28;20423;-39
2021/05/12 10:29:51;;;;;;;3.00;1.30;;;16.90;83.00;;;;;;5097721;28;20134;-44
2021/05/12 10:32:29;;;;;;;5.38;1.95;;;17.00;83.20;;;;;;5102350;28;20058;-41
2021/05/12 10:35:09;;;;;;;4.43;1.50;;;17.00;82.80;;;;;;5100421;28;20489;-39
2021/05/12 10:37:47;;;;;;;4.60;1.33;;;17.10;82.70;;;;;;5107022;28;20074;-39
2021/05/12 10:40:28;;;;;;;8.27;1.55;;;17.10;83.00;;;;;;5099823;28;20020;-42
2021/05/12 10:43:28;;;;;;;7.00;1.63;;;17.20;81.90;;;;;;5094997;28;20101;-40
2021/05/12 10:45:57;;;;;;;5.38;1.65;;;17.20;82.30;;;;;;5101871;28;20027;-40
2021/05/12 10:48:46;;;;;;;8.35;2.67;;;17.40;82.30;;;;;;5088626;28;20032;-40
2021/05/12 10:51:22;;;;;;;6.28;2.08;;;17.40;82.90;;;;;;5101644;28;20059;-41
2021/05/12 10:53:52;;;;;;;6.72;2.28;;;17.60;82.50;;;;;;5087852;28;20488;-40
2021/05/12 10:56:20;;;;;;;7.38;2.00;;;17.70;82.10;;;;;;5101425;28;20412;-41
2021/05/12 10:58:59;;;;;;;7.70;2.00;;;17.70;82.30;;;;;;5088085;28;20081;-41
2021/05/12 11:01:51;;;;;;;6.43;1.67;;;17.80;82.40;;;;;;5100678;28;20054;-38
2021/05/12 11:04:19;;;;;;;5.57;1.85;;;17.70;82.20;;;;;;5088893;28;20020;-40
2021/05/12 11:06:44;;;;;;;8.18;1.90;;;17.80;82.30;;;;;;5101157;28;20015;-41
2021/05/12 11:09:18;;;;;;;5.95;1.60;;;17.80;82.20;;;;;;5088327;28;20050;-41
2021/05/12 11:11:44;;;;;;;5.57;1.60;;;17.90;82.50;;;;;;5101251;28;20023;-39
2021/05/12 11:14:29;;;;;;;7.97;1.73;;;17.90;82.10;;;;;;5088773;28;20035;-39
2021/05/12 11:17:21;;;;;;;8.73;1.73;;;18.00;82.60;;;;;;5099874;28;20509;-40
2021/05/12 11:19:58;;;;;;;5.30;1.50;;;18.00;82.30;;;;;;5088106;28;20028;-39
2021/05/12 11:25:21;;;;;;;;;;;17.90;81.90;;;;;;5088654;28;20047;-37
2021/05/12 11:33:28;;;;;;;4.60;1.35;;;17.60;77.80;;;;;;5099881;28;20100;-41
2021/05/12 11:35:58;;;;;;;4.32;1.38;;;17.60;78.10;;;;;;5088278;28;20716;-40
2021/05/12 11:38:24;;;;;;;4.95;1.02;;;17.60;78.20;;;;;;5099736;28;20123;-39
2021/05/12 11:41:13;;;;;;;4.70;1.38;;;17.80;79.40;;;;;;5088347;28;20016;-40
2021/05/12 11:43:49;;;;;;;3.80;1.05;;;17.90;77.80;;;;;;5106261;28;20114;-40
2021/05/12 11:46:20;;;;;;;5.82;1.50;;;18.10;77.70;;;;;;5102775;28;20028;-42
2021/05/12 11:48:50;;;;;;;2.38;0.90;;;18.30;76.80;;;;;;5098339;28;20134;-39
2021/05/12 11:51:19;;;;;;;3.55;1.20;;;18.40;77.40;;;;;;5088981;28;20027;-40
2021/05/12 11:53:45;;;;;;;4.57;1.60;;;18.50;76.50;;;;;;5098230;28;20085;-40
2021/05/12 11:56:12;;;;;;;6.05;1.70;;;18.50;75.30;;;;;;5087619;28;20121;-42
2021/05/12 11:58:40;;;;;;;5.60;1.65;;;18.50;75.90;;;;;;5099724;28;20016;-41
2021/05/12 12:01:09;;;;;;;4.78;1.55;;;18.40;77.00;;;;;;5087666;28;20101;-40
2021/05/12 12:03:43;;;;;;;3.92;1.30;;;18.40;75.20;;;;;;5099514;28;20118;-42
2021/05/12 12:06:11;;;;;;;5.40;1.42;;;18.50;75.80;;;;;;5087049;28;20062;-42
2021/05/12 12:08:40;;;;;;;6.95;1.38;;;18.40;76.60;;;;;;5099306;28;20040;-41
2021/05/12 12:11:14;;;;;;;6.20;1.52;;;18.50;75.70;;;;;;5086804;28;20062;-45
2021/05/12 12:13:42;;;;;;;6.57;1.90;;;18.70;75.40;;;;;;5098745;28;20046;-40
2021/05/12 12:16:08;;;;;;;7.75;1.80;;;18.80;75.90;;;;;;5087819;28;20032;-40
2021/05/12 12:18:41;;;;;;;4.50;1.50;;;18.90;75.60;;;;;;5095459;28;20069;-43
2021/05/12 12:21:09;;;;;;;5.78;1.83;;;19.00;75.20;;;;;;5089132;28;20040;-40
2021/05/12 12:23:38;;;;;;;4.75;1.52;;;19.10;74.90;;;;;;5094976;28;20027;-41
2021/05/12 12:26:21;;;;;;;4.50;1.48;;;19.10;75.00;;;;;;5089704;28;20498;-38
2021/05/12 12:28:54;;;;;;;5.00;1.45;;;19.20;74.20;;;;;;5095183;28;20030;-39
2021/05/12 12:31:26;;;;;;;4.40;1.25;;;19.20;74.90;;;;;;5089634;28;20416;-41
2021/05/12 12:34:16;;;;;;;6.87;1.47;;;19.30;75.30;;;;;;5093498;28;20034;-37
2021/05/12 12:36:49;;;;;;;4.47;1.38;;;19.40;74.00;;;;;;5087236;28;20036;-41
2021/05/12 12:39:14;;;;;;;;;;;19.50;73.30;;;;;;5096480;28;20035;-37
2021/05/12 12:41:41;;;;;;;3.03;1.20;;;19.50;73.10;;;;;;5090300;28;19988;-41
2021/05/12 12:44:07;;;;;;;4.38;1.42;;;19.60;73.30;;;;;;5098969;28;20028;-42
2021/05/12 12:46:32;;;;;;;4.53;1.45;;;19.60;73.20;;;;;;5100976;28;20568;-42
2021/05/12 12:48:58;;;;;;;6.07;1.67;;;19.70;73.50;;;;;;5102099;28;20021;-41
2021/05/12 12:51:40;;;;;;;3.53;1.48;;;19.80;72.70;;;;;;5098860;28;20117;-39
2021/05/12 12:54:07;;;;;;;7.93;1.35;;;19.80;71.50;;;;;;5102043;28;20137;-41